createdAt,value
2023-01-15T00:00:49.024Z,11.60
2023-01-15T00:03:52.448Z,11.60
2023-01-15T00:06:55.077Z,11.68
2023-01-15T00:09:57.692Z,11.93
2023-01-15T00:13:04.462Z,11.89
2023-01-15T00:16:08.669Z,11.74
2023-01-15T00:19:12.248Z,11.89
2023-01-15T00:22:14.883Z,11.85
2023-01-15T00:25:35.059Z,11.97
2023-01-15T00:28:39.019Z,12.08
2023-01-15T00:31:41.883Z,12.13
2023-01-15T00:34:44.682Z,12.20
2023-01-15T00:37:47.221Z,12.21
2023-01-15T00:40:53.011Z,12.27
2023-01-15T00:43:57.644Z,12.32
2023-01-15T00:47:00.436Z,12.33
2023-01-15T00:50:03.365Z,12.30
2023-01-15T00:53:05.964Z,12.27
2023-01-15T00:56:09.002Z,12.29
2023-01-15T00:59:13.046Z,12.32
2023-01-15T01:02:15.748Z,12.34
2023-01-15T01:05:18.521Z,12.29
2023-01-15T01:08:21.620Z,12.31
2023-01-15T01:11:26.799Z,12.26
2023-01-15T01:14:30.901Z,12.23
2023-01-15T01:17:33.852Z,12.28
2023-01-15T01:20:39.152Z,12.23
2023-01-15T01:23:41.878Z,12.30
2023-01-15T01:26:45.836Z,12.23
2023-01-15T01:29:49.811Z,12.30
2023-01-15T01:32:52.412Z,12.43
2023-01-15T01:35:54.920Z,12.45
2023-01-15T01:38:57.697Z,12.43
2023-01-15T01:42:00.837Z,12.43
2023-01-15T01:45:14.336Z,12.59
2023-01-15T01:48:18.955Z,12.48
2023-01-15T01:51:23.216Z,12.48
2023-01-15T01:54:27.080Z,12.49
2023-01-15T01:57:30.107Z,12.39
2023-01-15T02:00:35.187Z,12.32
2023-01-15T02:03:39.381Z,12.25
2023-01-15T02:06:43.617Z,12.39
2023-01-15T02:09:46.343Z,12.27
2023-01-15T02:12:55.511Z,12.44
2023-01-15T02:16:02.126Z,12.42
2023-01-15T02:19:23.345Z,12.47
2023-01-15T02:22:33.932Z,12.44
2023-01-15T02:25:48.997Z,12.37
2023-01-15T02:28:55.526Z,12.30
2023-01-15T02:31:59.863Z,12.43
2023-01-15T02:35:07.302Z,12.51
2023-01-15T02:38:13.005Z,12.49
2023-01-15T02:41:17.966Z,12.57
2023-01-15T02:44:23.633Z,12.70
2023-01-15T02:47:29.112Z,12.68
2023-01-15T02:50:34.662Z,12.63
2023-01-15T02:53:39.151Z,12.58
2023-01-15T02:56:42.393Z,12.53
2023-01-15T02:59:49.067Z,12.63
2023-01-15T03:02:55.465Z,12.41
2023-01-15T03:06:01.561Z,12.34
2023-01-15T03:09:04.877Z,12.46
2023-01-15T03:12:14.504Z,12.40
2023-01-15T03:15:41.086Z,12.44
2023-01-15T03:18:46.878Z,12.33
2023-01-15T03:21:56.529Z,12.44
2023-01-15T03:25:04.176Z,12.44
2023-01-15T03:28:07.694Z,12.41
2023-01-15T03:31:11.591Z,12.40
2023-01-15T03:34:14.200Z,12.54
2023-01-15T03:37:17.000Z,12.67
2023-01-15T03:40:19.723Z,12.71
2023-01-15T03:43:41.777Z,12.85
2023-01-15T03:46:54.195Z,12.74
2023-01-15T03:50:03.197Z,12.86
2023-01-15T03:53:12.713Z,12.93
2023-01-15T03:56:19.594Z,13.20
2023-01-15T03:59:25.195Z,13.19
2023-01-15T04:02:29.993Z,13.17
2023-01-15T04:05:33.379Z,13.35
2023-01-15T04:08:39.291Z,13.23
2023-01-15T04:11:42.150Z,13.45
2023-01-15T04:14:44.792Z,13.59
2023-01-15T04:17:48.852Z,13.51
2023-01-15T04:20:52.333Z,13.52
2023-01-15T04:23:54.856Z,13.46
2023-01-15T04:26:57.363Z,13.45
2023-01-15T04:30:00.202Z,13.44
2023-01-15T04:33:04.484Z,13.40
2023-01-15T04:36:08.032Z,13.31
2023-01-15T04:39:10.496Z,13.40
2023-01-15T04:42:45.120Z,13.28
2023-01-15T04:45:47.996Z,13.24
2023-01-15T04:48:52.014Z,13.31
2023-01-15T04:51:54.584Z,13.22
2023-01-15T04:54:57.525Z,13.27
2023-01-15T04:58:00.129Z,13.37
2023-01-15T05:01:03.105Z,13.40
2023-01-15T05:04:09.025Z,13.31
2023-01-15T05:07:11.755Z,13.27
2023-01-15T05:10:14.462Z,13.44
2023-01-15T05:13:17.131Z,13.37
2023-01-15T05:16:21.799Z,13.36
2023-01-15T05:19:25.768Z,13.43
2023-01-15T05:22:28.334Z,13.46
2023-01-15T05:25:30.971Z,13.33
2023-01-15T05:28:33.587Z,11.33
2023-01-15T05:31:36.174Z,10.60
2023-01-15T05:34:40.079Z,10.40
2023-01-15T05:37:42.836Z,9.80
2023-01-15T05:40:45.464Z,9.59
2023-01-15T05:43:48.084Z,9.73
2023-01-15T05:46:51.876Z,9.58
2023-01-15T05:49:55.849Z,9.31
2023-01-15T05:52:58.476Z,9.18
2023-01-15T05:56:01.977Z,9.00
2023-01-15T05:59:05.160Z,9.30
2023-01-15T06:02:07.855Z,9.08
2023-01-15T06:05:11.913Z,8.94
2023-01-15T06:08:14.451Z,9.05
2023-01-15T06:11:17.029Z,8.95
2023-01-15T06:14:19.571Z,8.89
2023-01-15T06:17:22.234Z,9.17
2023-01-15T06:20:26.161Z,9.30
2023-01-15T06:23:29.088Z,9.25
2023-01-15T06:26:31.863Z,9.04
2023-01-15T06:29:34.526Z,9.08
2023-01-15T06:32:37.317Z,9.13
2023-01-15T06:35:41.238Z,8.88
2023-01-15T06:38:44.470Z,9.00
2023-01-15T06:42:04.542Z,8.77
2023-01-15T06:45:30.666Z,8.73
2023-01-15T06:48:34.729Z,8.27
2023-01-15T06:51:38.824Z,8.27
2023-01-15T06:54:42.472Z,8.19
2023-01-15T06:57:45.751Z,8.27
2023-01-15T07:00:55.151Z,8.16
2023-01-15T07:03:58.158Z,8.13
2023-01-15T07:07:02.425Z,8.09
2023-01-15T07:10:05.757Z,8.00
2023-01-15T07:13:10.434Z,7.90
2023-01-15T07:16:27.190Z,8.02
2023-01-15T07:19:29.815Z,7.49
2023-01-15T07:22:33.841Z,7.26
2023-01-15T07:25:37.674Z,7.22
2023-01-15T07:28:40.539Z,7.24
2023-01-15T07:31:43.296Z,7.20
2023-01-15T07:34:46.361Z,7.04
2023-01-15T07:37:53.515Z,7.17
2023-01-15T07:41:11.237Z,6.97
2023-01-15T07:44:31.353Z,6.99
2023-01-15T07:47:54.089Z,6.92
2023-01-15T07:50:56.719Z,7.11
2023-01-15T07:54:00.775Z,7.00
2023-01-15T07:57:03.874Z,6.99
2023-01-15T08:00:08.227Z,7.11
2023-01-15T08:03:11.176Z,7.17
2023-01-15T08:06:13.940Z,7.19
2023-01-15T08:09:18.765Z,7.20
2023-01-15T08:12:38.932Z,7.26
2023-01-15T08:15:43.949Z,7.12
2023-01-15T08:18:46.845Z,7.16
2023-01-15T08:21:49.525Z,7.09
2023-01-15T08:24:53.431Z,7.29
2023-01-15T08:27:56.548Z,7.22
2023-01-15T08:30:59.354Z,7.17
2023-01-15T08:34:02.879Z,7.01
2023-01-15T08:37:05.777Z,6.96
2023-01-15T08:40:11.416Z,6.78
2023-01-15T08:43:14.095Z,7.04
2023-01-15T08:46:16.614Z,6.90
2023-01-15T08:49:20.762Z,6.95
2023-01-15T08:52:23.477Z,7.17
2023-01-15T08:55:27.472Z,7.15
2023-01-15T08:58:30.884Z,6.99
2023-01-15T09:01:33.790Z,7.19
2023-01-15T09:04:36.585Z,7.18
2023-01-15T09:07:39.289Z,7.34
2023-01-15T09:10:43.254Z,7.44
2023-01-15T09:13:46.762Z,7.61
2023-01-15T09:16:49.407Z,7.67
2023-01-15T09:19:51.930Z,7.79
2023-01-15T09:22:54.544Z,7.78
2023-01-15T09:25:59.553Z,7.89
2023-01-15T09:29:02.503Z,7.93
2023-01-15T09:32:05.122Z,8.08
2023-01-15T09:35:08.828Z,7.88
2023-01-15T09:38:12.189Z,7.84
2023-01-15T09:41:31.011Z,8.05
2023-01-15T09:44:41.659Z,8.25
2023-01-15T09:47:52.411Z,8.34
2023-01-15T09:51:07.897Z,8.47
2023-01-15T09:54:22.085Z,8.53
2023-01-15T09:57:26.619Z,8.19
2023-01-15T10:00:33.881Z,7.98
2023-01-15T10:03:42.745Z,7.64
2023-01-15T10:06:49.592Z,7.31
2023-01-15T10:09:57.859Z,7.16
2023-01-15T10:13:09.083Z,7.18
2023-01-15T10:16:13.162Z,7.11
2023-01-15T10:19:15.702Z,7.13
2023-01-15T10:22:28.953Z,7.10
2023-01-15T10:25:37.556Z,7.27
2023-01-15T10:28:54.265Z,7.24
2023-01-15T10:32:03.586Z,7.40
2023-01-15T10:35:21.596Z,7.44
2023-01-15T10:38:28.533Z,7.25
2023-01-15T10:41:40.297Z,7.21
2023-01-15T10:44:48.818Z,7.04
2023-01-15T10:47:56.407Z,6.88
2023-01-15T10:51:02.860Z,6.87
2023-01-15T10:54:11.751Z,6.94
2023-01-15T10:57:17.427Z,6.83
2023-01-15T11:00:24.424Z,6.19
2023-01-15T11:03:34.367Z,5.52
2023-01-15T11:06:37.225Z,5.31
2023-01-15T11:09:41.521Z,5.30
2023-01-15T11:13:08.972Z,5.52
2023-01-15T11:16:34.770Z,5.70
2023-01-15T11:19:40.770Z,5.59
2023-01-15T11:22:44.926Z,5.69
2023-01-15T11:25:52.162Z,5.50
2023-01-15T11:28:55.758Z,5.51
2023-01-15T11:32:00.011Z,5.38
2023-01-15T11:35:04.689Z,5.16
2023-01-15T11:38:08.525Z,5.21
2023-01-15T11:41:17.841Z,5.12
2023-01-15T11:44:40.361Z,5.63
2023-01-15T11:48:10.501Z,5.84
2023-01-15T11:51:15.819Z,5.61
2023-01-15T11:54:19.139Z,5.77
2023-01-15T11:57:28.460Z,5.49
2023-01-15T12:00:43.613Z,5.76
2023-01-15T12:03:47.960Z,5.80
2023-01-15T12:06:50.855Z,5.97
2023-01-15T12:10:14.958Z,6.30
2023-01-15T12:13:25.851Z,6.44
2023-01-15T12:16:31.548Z,6.48
2023-01-15T12:19:41.014Z,6.49
2023-01-15T12:22:58.843Z,6.44
2023-01-15T12:26:06.505Z,6.60
2023-01-15T12:29:22.751Z,6.62
2023-01-15T12:32:29.519Z,6.78
2023-01-15T12:35:34.640Z,6.86
2023-01-15T12:38:46.281Z,6.37
2023-01-15T12:42:10.628Z,6.43
2023-01-15T12:45:16.629Z,6.41
2023-01-15T12:48:24.011Z,6.47
2023-01-15T12:51:31.672Z,6.51
2023-01-15T12:54:38.064Z,6.53
2023-01-15T12:57:44.683Z,6.70
2023-01-15T13:00:47.457Z,6.77
2023-01-15T13:03:57.677Z,6.68
2023-01-15T13:07:17.573Z,6.98
2023-01-15T13:10:21.605Z,7.15
2023-01-15T13:13:25.957Z,7.14
2023-01-15T13:16:34.435Z,7.31
2023-01-15T13:19:44.549Z,7.46
2023-01-15T13:22:56.321Z,7.40
2023-01-15T13:26:09.610Z,7.54
2023-01-15T13:29:20.055Z,7.19
2023-01-15T13:32:24.690Z,7.16
2023-01-15T13:35:31.446Z,7.21
2023-01-15T13:38:40.604Z,7.56
2023-01-15T13:42:01.117Z,7.47
2023-01-15T13:45:08.299Z,7.15
2023-01-15T13:48:16.604Z,7.03
2023-01-15T13:51:29.294Z,6.80
2023-01-15T13:54:34.570Z,7.06
2023-01-15T13:57:39.576Z,9.72
2023-01-15T14:00:42.449Z,13.57
2023-01-15T14:03:56.860Z,16.07
2023-01-15T14:06:59.572Z,19.84
2023-01-15T14:10:11.715Z,21.86
2023-01-15T14:13:42.755Z,17.72
2023-01-15T14:16:54.758Z,21.66
2023-01-15T14:20:11.910Z,21.76
2023-01-15T14:23:25.610Z,23.67
2023-01-15T14:26:34.354Z,24.36
2023-01-15T14:29:56.110Z,23.46
2023-01-15T14:33:04.832Z,20.31
2023-01-15T14:36:12.332Z,14.49
2023-01-15T14:39:43.998Z,11.12
2023-01-15T14:43:02.858Z,9.54
2023-01-15T14:46:15.684Z,8.73
2023-01-15T14:49:29.493Z,8.14
2023-01-15T14:52:32.325Z,7.78
2023-01-15T14:55:39.480Z,7.64
2023-01-15T14:58:51.960Z,7.39
2023-01-15T15:01:58.215Z,7.31
2023-01-15T15:05:01.756Z,7.21
2023-01-15T15:08:05.196Z,7.15
2023-01-15T15:11:37.739Z,7.02
2023-01-15T15:14:42.165Z,6.97
2023-01-15T15:17:53.147Z,6.97
2023-01-15T15:21:03.113Z,6.77
2023-01-15T15:24:08.809Z,6.68
2023-01-15T15:27:17.024Z,6.64
2023-01-15T15:30:21.525Z,6.65
2023-01-15T15:33:27.104Z,6.60
2023-01-15T15:36:31.275Z,6.51
2023-01-15T15:39:40.069Z,6.50
2023-01-15T15:43:07.588Z,6.45
2023-01-15T15:46:42.433Z,6.23
2023-01-15T15:49:45.191Z,6.21
2023-01-15T15:52:50.179Z,6.13
2023-01-15T15:55:54.144Z,5.95
2023-01-15T15:58:58.448Z,6.09
2023-01-15T16:02:15.917Z,6.01
2023-01-15T16:05:23.887Z,5.92
2023-01-15T16:08:27.410Z,5.67
2023-01-15T16:11:30.260Z,5.46
2023-01-15T16:14:35.794Z,5.68
2023-01-15T16:17:41.411Z,5.65
2023-01-15T16:20:44.524Z,5.52
2023-01-15T16:23:57.665Z,5.47
2023-01-15T16:27:04.025Z,5.23
2023-01-15T16:30:07.670Z,5.29
2023-01-15T16:33:19.012Z,5.25
2023-01-15T16:36:22.430Z,5.17
2023-01-15T16:39:28.070Z,5.24
2023-01-15T16:42:35.509Z,5.16
2023-01-15T16:45:57.459Z,5.01
2023-01-15T16:49:24.872Z,4.90
2023-01-15T16:52:48.793Z,4.90
2023-01-15T16:55:55.133Z,4.92
2023-01-15T16:58:58.123Z,4.82
2023-01-15T17:02:05.877Z,4.74
2023-01-15T17:05:19.210Z,4.71
2023-01-15T17:08:24.026Z,4.82
2023-01-15T17:11:30.067Z,4.76
2023-01-15T17:14:33.099Z,4.71
2023-01-15T17:17:35.629Z,4.63
2023-01-15T17:20:39.682Z,4.51
2023-01-15T17:23:43.087Z,4.46
2023-01-15T17:26:45.992Z,4.50
2023-01-15T17:29:48.717Z,4.46
2023-01-15T17:32:51.706Z,4.56
2023-01-15T17:35:58.251Z,4.48
2023-01-15T17:39:00.866Z,4.48
2023-01-15T17:42:03.756Z,4.52
2023-01-15T17:45:07.204Z,4.45
2023-01-15T17:48:13.439Z,4.45
2023-01-15T17:51:18.304Z,4.39
2023-01-15T17:54:42.797Z,4.35
2023-01-15T17:58:03.489Z,4.38
2023-01-15T18:01:31.079Z,4.29
2023-01-15T18:04:55.431Z,4.30
2023-01-15T18:07:59.535Z,4.18
2023-01-15T18:11:02.155Z,4.12
2023-01-15T18:14:04.697Z,4.15
2023-01-15T18:17:07.214Z,3.94
2023-01-15T18:20:12.473Z,3.92
2023-01-15T18:23:16.907Z,3.97
2023-01-15T18:26:19.520Z,4.21
2023-01-15T18:29:23.068Z,4.30
2023-01-15T18:32:28.653Z,4.28
2023-01-15T18:35:31.963Z,4.27
2023-01-15T18:38:37.565Z,4.38
2023-01-15T18:41:58.431Z,4.50
2023-01-15T18:45:18.939Z,4.51
2023-01-15T18:48:21.454Z,4.48
2023-01-15T18:51:25.550Z,4.57
2023-01-15T18:54:29.805Z,4.77
2023-01-15T18:57:34.434Z,4.82
2023-01-15T19:00:37.180Z,4.88
2023-01-15T19:03:39.906Z,4.82
2023-01-15T19:06:43.182Z,4.73
2023-01-15T19:09:47.382Z,4.83
2023-01-15T19:12:50.084Z,4.80
2023-01-15T19:16:10.552Z,4.79
2023-01-15T19:19:13.484Z,4.92
2023-01-15T19:22:34.251Z,4.81
2023-01-15T19:25:40.012Z,4.84
2023-01-15T19:28:42.667Z,4.98
2023-01-15T19:31:46.532Z,5.03
2023-01-15T19:34:50.581Z,5.03
2023-01-15T19:37:55.217Z,4.95
2023-01-15T19:41:19.786Z,5.03
2023-01-15T19:44:40.011Z,4.99
2023-01-15T19:48:00.529Z,4.95
2023-01-15T19:51:03.687Z,5.08
2023-01-15T19:54:06.753Z,4.94
2023-01-15T19:57:11.114Z,4.82
2023-01-15T20:00:15.944Z,4.88
2023-01-15T20:03:18.595Z,4.85
2023-01-15T20:06:21.368Z,4.83
2023-01-15T20:09:24.293Z,4.78
2023-01-15T20:12:46.448Z,4.84
2023-01-15T20:15:49.273Z,4.94
2023-01-15T20:18:53.458Z,4.88
2023-01-15T20:21:56.439Z,4.95
2023-01-15T20:24:59.081Z,4.90
2023-01-15T20:28:02.989Z,4.72
2023-01-15T20:31:09.661Z,4.80
2023-01-15T20:34:12.209Z,4.83
2023-01-15T20:37:15.084Z,4.80
2023-01-15T20:40:20.331Z,4.75
2023-01-15T20:43:41.962Z,4.68
2023-01-15T20:46:44.561Z,4.72
2023-01-15T20:49:46.214Z,4.64
2023-01-15T20:52:50.217Z,4.52
2023-01-15T20:55:57.418Z,4.52
2023-01-15T20:59:02.377Z,4.43
2023-01-15T21:02:05.136Z,4.30
2023-01-15T21:05:09.048Z,4.15
2023-01-15T21:08:11.990Z,4.04
2023-01-15T21:11:14.583Z,3.95
2023-01-15T21:14:18.641Z,3.80
2023-01-15T21:17:22.382Z,3.80
2023-01-15T21:20:25.117Z,3.85
2023-01-15T21:23:28.756Z,3.79
2023-01-15T21:26:31.973Z,3.92
2023-01-15T21:29:36.045Z,3.91
2023-01-15T21:32:39.443Z,3.83
2023-01-15T21:35:42.300Z,3.69
2023-01-15T21:38:45.128Z,3.60
2023-01-15T21:42:06.939Z,3.80
2023-01-15T21:45:12.857Z,3.81
2023-01-15T21:48:15.563Z,3.68
2023-01-15T21:51:18.342Z,3.77
2023-01-15T21:54:21.000Z,3.86
2023-01-15T21:57:23.645Z,3.76
2023-01-15T22:00:28.326Z,3.70
2023-01-15T22:03:30.985Z,3.87
2023-01-15T22:06:33.681Z,3.98
2023-01-15T22:09:36.412Z,3.88
2023-01-15T22:12:42.940Z,3.85
2023-01-15T22:15:54.519Z,3.87
2023-01-15T22:18:57.173Z,3.86
2023-01-15T22:22:01.798Z,3.93
2023-01-15T22:25:05.605Z,3.91
2023-01-15T22:28:08.301Z,3.96
2023-01-15T22:31:12.646Z,3.89
2023-01-15T22:34:15.146Z,3.84
2023-01-15T22:37:17.879Z,3.76
2023-01-15T22:40:20.600Z,3.75
2023-01-15T22:43:23.407Z,3.73
2023-01-15T22:46:27.403Z,3.84
2023-01-15T22:49:30.586Z,3.84
2023-01-15T22:52:33.371Z,3.90
2023-01-15T22:55:36.529Z,3.88
2023-01-15T22:58:42.502Z,3.95
2023-01-15T23:01:46.711Z,3.91
2023-01-15T23:04:49.604Z,3.88
2023-01-15T23:07:52.231Z,3.80
2023-01-15T23:10:54.854Z,3.87
2023-01-15T23:13:57.990Z,3.80
2023-01-15T23:17:01.925Z,3.84
2023-01-15T23:20:05.477Z,3.89
2023-01-15T23:23:08.078Z,3.96
2023-01-15T23:26:12.969Z,3.90
2023-01-15T23:29:15.728Z,3.75
2023-01-15T23:32:19.677Z,3.82
2023-01-15T23:35:22.558Z,3.68
2023-01-15T23:38:25.143Z,3.58
2023-01-15T23:41:45.556Z,3.64
2023-01-15T23:45:05.684Z,3.83
2023-01-15T23:48:09.568Z,3.87
2023-01-15T23:51:12.145Z,3.87
2023-01-15T23:54:15.469Z,3.89
2023-01-15T23:57:18.010Z,4.04
